Time;durP1;ratioP1;P1;durP2;ratioP2;P2;SDS_P1;SDS_P2;PMS_P1;PMS_P2;Temp;Humidity;BMP_temperature;BMP_pressure;BME280_temperature;BME280_humidity;BME280_pressure;Samples;Min_cycle;Max_cycle;Signal;HPM_P1;HPM_P2
2021/01/31 00:00:32;;;;;;;3.20;1.90;;;2.40;99.90;;;;;;5018285;28;20654;-69
2021/01/31 00:03:04;;;;;;;1.80;0.20;;;2.40;99.90;;;;;;5015726;28;20443;-69
2021/01/31 00:05:30;;;;;;;6.07;3.30;;;2.40;99.90;;;;;;5017736;28;20179;-69
2021/01/31 00:07:55;;;;;;;1.80;0.20;;;2.40;99.90;;;;;;5024147;28;20558;-67
2021/01/31 00:10:28;;;;;;;2.93;0.93;;;2.30;99.90;;;;;;5016859;28;20259;-70
2021/01/31 00:12:54;;;;;;;2.47;0.82;;;2.30;99.90;;;;;;5014192;28;20339;-68
2021/01/31 00:15:22;;;;;;;2.70;1.20;;;2.30;99.90;;;;;;5023049;28;20213;-70
2021/01/31 00:17:47;;;;;;;3.85;1.58;;;2.30;99.90;;;;;;5020024;28;20191;-71
2021/01/31 00:20:15;;;;;;;5.57;3.50;;;2.30;99.90;;;;;;5034814;28;20210;-69
2021/01/31 00:22:41;;;;;;;9.25;4.35;;;2.30;99.90;;;;;;5037902;28;20532;-71
2021/01/31 00:25:07;;;;;;;4.33;2.13;;;2.20;99.90;;;;;;5035012;28;20178;-71
2021/01/31 00:27:33;;;;;;;4.97;2.50;;;2.20;99.90;;;;;;5037120;28;20644;-71
2021/01/31 00:29:58;;;;;;;2.20;0.83;;;2.20;99.90;;;;;;5034824;28;20229;-71
2021/01/31 00:32:26;;;;;;;5.30;2.90;;;2.20;99.90;;;;;;5034124;28;20190;-71
2021/01/31 00:34:54;;;;;;;1.90;0.30;;;2.20;99.90;;;;;;5030149;28;20241;-71
2021/01/31 00:37:20;;;;;;;2.20;0.70;;;2.20;99.90;;;;;;5019923;28;20197;-71
2021/01/31 00:39:47;;;;;;;4.63;2.22;;;2.10;99.90;;;;;;5016770;28;21717;-71
2021/01/31 00:42:16;;;;;;;2.28;0.60;;;2.10;99.90;;;;;;5019391;28;20610;-71
2021/01/31 00:44:46;;;;;;;2.80;0.75;;;2.10;99.90;;;;;;5013497;28;20211;-71
2021/01/31 00:47:12;;;;;;;5.40;3.70;;;2.20;99.90;;;;;;5017426;28;20213;-71
2021/01/31 00:49:38;;;;;;;10.27;9.40;;;2.30;99.90;;;;;;5015909;28;20304;-72
2021/01/31 00:52:04;;;;;;;1.80;0.20;;;2.30;99.90;;;;;;5023564;28;20195;-71
2021/01/31 00:54:30;;;;;;;3.65;1.50;;;2.30;99.90;;;;;;5029616;28;20222;-72
2021/01/31 00:56:55;;;;;;;4.10;2.13;;;2.20;99.90;;;;;;5030247;28;20652;-68
2021/01/31 00:59:21;;;;;;;1.80;0.20;;;2.20;99.90;;;;;;5025642;28;20202;-71
2021/01/31 01:01:46;;;;;;;4.53;2.77;;;2.20;99.90;;;;;;5031149;28;20220;-69
2021/01/31 01:04:12;;;;;;;3.07;1.60;;;2.30;99.90;;;;;;5022727;28;20254;-71
2021/01/31 01:06:37;;;;;;;3.80;1.30;;;2.30;99.90;;;;;;5016578;28;20190;-71
2021/01/31 01:09:03;;;;;;;3.73;3.30;;;2.20;99.90;;;;;;5019486;28;20190;-71
2021/01/31 01:11:29;;;;;;;3.40;1.75;;;2.20;99.90;;;;;;5023240;28;20237;-70
2021/01/31 01:13:54;;;;;;;1.80;0.20;;;2.20;99.90;;;;;;5016968;28;20217;-72
2021/01/31 01:16:20;;;;;;;2.40;1.00;;;2.20;99.90;;;;;;5013284;28;20183;-72
2021/01/31 01:18:45;;;;;;;1.90;0.50;;;2.20;99.90;;;;;;5015998;28;20202;-72
2021/01/31 01:21:13;;;;;;;2.53;0.97;;;2.20;99.90;;;;;;5015785;28;20202;-72
2021/01/31 01:23:42;;;;;;;3.55;1.65;;;2.10;99.90;;;;;;5020695;28;20194;-72
2021/01/31 01:26:08;;;;;;;1.80;0.20;;;2.20;99.90;;;;;;5017467;28;20636;-71
2021/01/31 01:28:34;;;;;;;2.00;0.45;;;2.30;99.90;;;;;;5015155;28;20186;-71
2021/01/31 01:31:00;;;;;;;2.27;0.90;;;2.30;99.90;;;;;;5012883;28;20286;-71
2021/01/31 01:33:25;;;;;;;3.20;1.60;;;2.30;99.90;;;;;;5019571;28;20478;-72
2021/01/31 01:35:51;;;;;;;4.20;1.97;;;2.30;99.90;;;;;;5014394;28;20195;-72
2021/01/31 01:38:16;;;;;;;4.30;2.63;;;2.30;99.90;;;;;;5018431;28;20577;-71
2021/01/31 01:40:42;;;;;;;1.80;0.20;;;2.00;99.90;;;;;;5019284;28;20275;-71
2021/01/31 01:43:16;;;;;;;1.80;0.20;;;2.10;99.90;;;;;;5028923;28;20205;-72
2021/01/31 01:45:41;;;;;;;9.48;4.30;;;2.20;99.90;;;;;;5023058;28;20187;-72
2021/01/31 01:48:17;;;;;;;2.83;1.37;;;2.20;99.90;;;;;;5015060;28;20258;-72
2021/01/31 01:50:53;;;;;;;18.30;17.13;;;2.20;99.90;;;;;;5017458;28;20217;-72
2021/01/31 01:53:21;;;;;;;4.45;2.58;;;2.20;99.90;;;;;;5018991;28;20214;-72
2021/01/31 01:55:57;;;;;;;3.58;2.17;;;2.30;99.90;;;;;;5014859;28;20190;-71
2021/01/31 01:58:23;;;;;;;2.00;0.60;;;2.30;99.90;;;;;;5019174;28;20186;-70
2021/01/31 02:00:49;;;;;;;6.87;4.30;;;2.20;99.90;;;;;;5021574;28;20766;-72
2021/01/31 02:03:23;;;;;;;2.95;1.33;;;2.10;99.90;;;;;;5017619;28;20212;-70
2021/01/31 02:06:01;;;;;;;7.70;4.40;;;2.10;99.90;;;;;;5013388;28;20689;-71
2021/01/31 02:08:26;;;;;;;1.80;0.20;;;2.10;99.90;;;;;;5018466;28;20540;-71
2021/01/31 02:10:52;;;;;;;3.70;1.13;;;2.10;99.90;;;;;;5014691;28;20221;-72
2021/01/31 02:13:17;;;;;;;1.80;0.20;;;2.20;99.90;;;;;;5019685;28;20217;-71
2021/01/31 02:15:46;;;;;;;1.80;0.20;;;2.20;99.90;;;;;;5008319;28;20242;-71
2021/01/31 02:18:36;;;;;;;7.18;4.03;;;2.10;99.90;;;;;;5022839;28;20647;-71
2021/01/31 02:21:25;;;;;;;2.00;0.35;;;2.10;99.90;;;;;;5019756;28;20221;-71
2021/01/31 02:24:22;;;;;;;1.88;0.30;;;2.10;99.90;;;;;;5007911;28;20605;-71
2021/01/31 02:27:25;;;;;;;2.25;0.73;;;2.20;99.90;;;;;;5016956;28;20268;-72
2021/01/31 02:30:11;;;;;;;4.65;2.80;;;2.10;99.90;;;;;;5012734;28;20229;-72
2021/01/31 02:32:59;;;;;;;2.70;0.82;;;2.20;99.90;;;;;;5010284;28;20193;-72
2021/01/31 02:35:27;;;;;;;2.20;0.93;;;2.30;99.90;;;;;;5011379;28;20540;-71
2021/01/31 02:38:15;;;;;;;2.70;1.70;;;2.30;99.90;;;;;;5014100;28;20254;-71
2021/01/31 02:40:45;;;;;;;2.92;1.48;;;2.20;99.90;;;;;;5013293;28;20638;-71
2021/01/31 02:43:15;;;;;;;1.80;0.20;;;2.30;99.90;;;;;;5021776;28;20213;-72
2021/01/31 02:46:06;;;;;;;2.53;1.27;;;2.30;99.90;;;;;;5018578;28;20190;-71
2021/01/31 02:48:51;;;;;;;1.80;0.22;;;2.30;99.90;;;;;;5010892;28;20619;-71
2021/01/31 02:51:26;;;;;;;1.88;0.30;;;2.30;99.90;;;;;;5011073;28;20260;-70
2021/01/31 02:54:12;;;;;;;5.35;2.75;;;2.20;99.90;;;;;;5013435;28;20666;-72
2021/01/31 02:57:02;;;;;;;1.80;0.20;;;2.10;99.90;;;;;;5013987;28;20624;-72
2021/01/31 02:59:50;;;;;;;3.65;2.05;;;2.10;99.90;;;;;;5012858;28;20199;-71
2021/01/31 03:02:21;;;;;;;1.80;0.20;;;2.20;99.90;;;;;;5018161;28;20193;-71
2021/01/31 03:05:06;;;;;;;1.80;0.20;;;2.20;99.90;;;;;;5022390;28;20194;-72
2021/01/31 03:07:47;;;;;;;2.08;0.43;;;2.20;99.90;;;;;;5016242;28;20218;-67
2021/01/31 03:10:20;;;;;;;1.90;0.50;;;2.20;99.90;;;;;;5007545;28;20207;-72
2021/01/31 03:13:04;;;;;;;4.00;1.88;;;2.20;99.90;;;;;;5013370;28;20405;-71
2021/01/31 03:15:36;;;;;;;2.65;0.60;;;2.20;99.90;;;;;;5031614;28;20189;-71
2021/01/31 03:18:19;;;;;;;5.60;2.70;;;2.10;99.90;;;;;;5005919;28;20550;-72
2021/01/31 03:20:57;;;;;;;1.80;0.20;;;2.20;99.90;;;;;;5016184;28;20201;-71
2021/01/31 03:24:04;;;;;;;2.47;0.88;;;2.20;99.90;;;;;;5019608;28;20190;-71
2021/01/31 03:26:46;;;;;;;1.80;0.20;;;2.20;99.90;;;;;;5010154;28;20198;-71
2021/01/31 03:29:12;;;;;;;9.07;4.43;;;2.10;99.90;;;;;;5029564;28;20257;-72
2021/01/31 03:31:44;;;;;;;1.80;0.20;;;2.10;99.90;;;;;;5033362;28;20237;-71
2021/01/31 03:34:17;;;;;;;3.60;1.75;;;2.10;99.90;;;;;;5019984;28;20446;-72
2021/01/31 03:36:48;;;;;;;9.65;5.93;;;2.10;99.90;;;;;;5013176;28;20171;-71
2021/01/31 03:39:15;;;;;;;1.90;0.35;;;2.10;99.90;;;;;;5017609;28;20642;-72
2021/01/31 03:41:40;;;;;;;8.75;4.95;;;2.10;99.90;;;;;;5013945;28;20309;-72
2021/01/31 03:44:06;;;;;;;1.80;0.20;;;2.00;99.90;;;;;;5012242;28;20222;-72
2021/01/31 03:46:38;;;;;;;1.80;0.20;;;2.00;99.90;;;;;;5014930;28;20179;-72
2021/01/31 03:49:16;;;;;;;1.80;0.20;;;2.00;99.90;;;;;;5014026;28;20232;-72
2021/01/31 03:51:42;;;;;;;3.72;2.25;;;2.00;99.90;;;;;;5009613;28;20202;-71
2021/01/31 03:54:09;;;;;;;1.80;0.30;;;2.00;99.90;;;;;;5019464;28;20197;-71
2021/01/31 03:56:50;;;;;;;3.10;2.35;;;2.00;99.90;;;;;;5013753;28;20183;-71
2021/01/31 03:59:25;;;;;;;3.05;1.02;;;2.00;99.90;;;;;;5027286;28;20178;-69
2021/01/31 04:01:53;;;;;;;6.78;3.33;;;2.10;99.90;;;;;;5025398;28;20195;-72
2021/01/31 04:04:26;;;;;;;5.97;3.88;;;2.00;99.90;;;;;;5018434;28;20667;-72
2021/01/31 04:06:56;;;;;;;1.80;0.20;;;2.00;99.90;;;;;;5010779;28;20217;-72
2021/01/31 04:09:22;;;;;;;1.80;0.20;;;2.00;99.90;;;;;;5011900;28;20214;-71
2021/01/31 04:11:47;;;;;;;2.73;0.57;;;2.10;99.90;;;;;;5015095;28;20281;-72
2021/01/31 04:14:38;;;;;;;2.00;0.37;;;2.00;99.90;;;;;;5013581;28;20510;-72
2021/01/31 04:17:03;;;;;;;2.08;0.40;;;2.00;99.90;;;;;;5017771;28;20205;-72
2021/01/31 04:19:29;;;;;;;7.73;4.70;;;2.00;99.90;;;;;;5015817;28;20598;-72
2021/01/31 04:21:54;;;;;;;6.00;3.80;;;2.00;99.90;;;;;;5012776;28;20221;-72
2021/01/31 04:24:20;;;;;;;8.13;6.03;;;2.00;99.90;;;;;;5013753;28;20232;-70
2021/01/31 04:26:45;;;;;;;2.47;0.80;;;1.80;99.90;;;;;;5013989;28;20559;-72
2021/01/31 04:29:11;;;;;;;11.83;5.50;;;1.90;99.90;;;;;;5016561;28;20187;-72
2021/01/31 04:31:37;;;;;;;1.87;0.20;;;1.80;99.90;;;;;;5015042;28;20241;-71
2021/01/31 04:34:02;;;;;;;1.90;0.40;;;1.80;99.90;;;;;;5011904;28;20215;-70
2021/01/31 04:36:28;;;;;;;2.33;0.93;;;1.90;99.90;;;;;;5015523;28;20269;-72
2021/01/31 04:38:54;;;;;;;2.30;0.77;;;1.90;99.90;;;;;;5011643;28;20252;-72
2021/01/31 04:41:21;;;;;;;3.90;1.70;;;1.90;99.90;;;;;;5009898;28;20210;-72
2021/01/31 04:43:49;;;;;;;2.85;1.70;;;1.90;99.90;;;;;;5018073;28;20194;-72
2021/01/31 04:46:20;;;;;;;1.80;0.20;;;2.00;99.90;;;;;;5011911;28;20630;-71
2021/01/31 04:49:23;;;;;;;1.80;0.20;;;1.90;99.90;;;;;;5011474;28;20296;-72
2021/01/31 04:52:16;;;;;;;9.73;2.58;;;2.00;99.90;;;;;;5001490;28;20218;-68
2021/01/31 04:55:14;;;;;;;2.47;0.75;;;2.00;99.90;;;;;;5018398;28;20202;-72
2021/01/31 04:57:45;;;;;;;8.52;3.88;;;1.90;99.90;;;;;;5022068;28;20189;-72
2021/01/31 05:00:21;;;;;;;6.95;0.98;;;1.80;99.90;;;;;;5014912;28;20238;-72
2021/01/31 05:02:53;;;;;;;7.78;2.97;;;1.80;99.90;;;;;;5016020;28;20232;-72
2021/01/31 05:05:23;;;;;;;7.53;3.00;;;1.80;99.90;;;;;;5016760;28;20684;-72
2021/01/31 05:07:53;;;;;;;7.68;4.15;;;1.80;99.90;;;;;;5012387;28;20714;-72
2021/01/31 05:10:19;;;;;;;2.10;0.75;;;1.80;99.90;;;;;;5045772;22;20211;-59
2021/01/31 05:12:57;;;;;;;1.80;0.20;;;1.90;99.90;;;;;;5030612;28;20202;-60
2021/01/31 05:15:25;;;;;;;1.80;0.20;;;1.90;99.90;;;;;;5033297;28;20243;-60
2021/01/31 05:17:54;;;;;;;4.75;1.67;;;1.90;99.90;;;;;;5034013;28;20203;-60
2021/01/31 05:20:26;;;;;;;2.92;1.45;;;2.00;99.90;;;;;;5032581;28;20185;-60
2021/01/31 05:22:55;;;;;;;1.80;0.20;;;2.00;99.90;;;;;;5030450;28;20186;-61
2021/01/31 05:25:24;;;;;;;2.00;0.95;;;1.90;99.90;;;;;;5034505;28;20653;-60
2021/01/31 05:27:54;;;;;;;3.75;1.95;;;1.90;99.90;;;;;;5031681;28;20269;-60
2021/01/31 05:30:20;;;;;;;5.35;3.67;;;1.80;99.90;;;;;;5027095;28;20652;-60
2021/01/31 05:33:16;;;;;;;6.67;4.20;;;1.80;99.90;;;;;;5030624;28;20197;-60
2021/01/31 05:36:07;;;;;;;5.05;2.90;;;1.90;99.90;;;;;;5032542;28;20262;-60
2021/01/31 05:38:39;;;;;;;1.80;0.20;;;2.00;99.90;;;;;;5019533;28;20229;-60
2021/01/31 05:41:26;;;;;;;2.50;0.52;;;1.90;99.90;;;;;;5034260;28;20205;-60
2021/01/31 05:44:07;;;;;;;2.70;0.90;;;2.00;99.90;;;;;;5033989;28;20201;-61
2021/01/31 05:46:45;;;;;;;4.50;2.72;;;2.00;99.90;;;;;;5017615;28;20185;-61
2021/01/31 05:49:46;;;;;;;5.82;3.35;;;1.90;99.90;;;;;;5031274;28;20186;-61
2021/01/31 05:52:28;;;;;;;2.88;1.30;;;1.70;99.90;;;;;;5025435;28;20302;-60
2021/01/31 05:54:55;;;;;;;7.57;4.40;;;1.60;99.90;;;;;;5034035;28;20209;-60
2021/01/31 05:57:27;;;;;;;1.80;0.20;;;1.60;99.90;;;;;;5029332;28;20239;-60
2021/01/31 05:59:54;;;;;;;1.80;0.20;;;1.70;99.90;;;;;;5030351;28;20190;-61
2021/01/31 06:02:31;;;;;;;5.57;3.80;;;1.80;99.90;;;;;;5028830;28;20213;-60
2021/01/31 06:05:29;;;;;;;2.67;1.25;;;1.70;99.90;;;;;;5030299;28;20174;-60
2021/01/31 06:08:01;;;;;;;1.80;0.20;;;1.70;99.90;;;;;;4998501;28;20193;-60
2021/01/31 06:10:28;;;;;;;6.93;2.97;;;1.70;99.90;;;;;;5032762;28;20729;-60
2021/01/31 06:13:19;;;;;;;1.80;0.20;;;1.60;99.90;;;;;;5036289;28;20695;-61
2021/01/31 06:15:52;;;;;;;2.92;1.25;;;1.70;99.90;;;;;;5032069;28;20692;-60
2021/01/31 06:18:23;;;;;;;5.20;0.82;;;1.70;99.90;;;;;;5031572;28;20190;-60
2021/01/31 06:20:48;;;;;;;1.90;0.30;;;1.70;99.90;;;;;;5032507;28;20244;-61
2021/01/31 06:23:50;;;;;;;1.83;0.20;;;1.70;99.90;;;;;;5029036;28;20213;-60
2021/01/31 06:26:29;;;;;;;1.80;0.20;;;1.70;99.90;;;;;;5025420;28;20185;-60
2021/01/31 06:29:02;;;;;;;1.80;0.20;;;1.70;99.90;;;;;;5027902;28;20726;-60
2021/01/31 06:31:34;;;;;;;1.80;0.20;;;1.80;99.90;;;;;;5011667;28;20256;-60
2021/01/31 06:34:00;;;;;;;1.80;0.20;;;1.80;99.90;;;;;;5026660;28;20664;-61
2021/01/31 06:36:31;;;;;;;4.80;3.07;;;1.70;99.90;;;;;;5027338;28;20225;-60
2021/01/31 06:39:29;;;;;;;1.80;0.20;;;1.60;99.90;;;;;;5029238;28;20182;-60
2021/01/31 06:42:03;;;;;;;2.13;0.50;;;1.60;99.90;;;;;;5026372;28;20206;-60
2021/01/31 06:44:38;;;;;;;1.80;0.20;;;1.70;99.90;;;;;;5030743;28;20201;-60
2021/01/31 06:47:24;;;;;;;3.75;2.25;;;1.70;99.90;;;;;;5028348;28;20181;-60
2021/01/31 06:50:08;;;;;;;2.20;0.82;;;1.70;99.90;;;;;;5027940;28;20197;-60
2021/01/31 06:52:52;;;;;;;2.53;0.82;;;1.70;99.90;;;;;;5029238;28;20194;-60
2021/01/31 06:55:45;;;;;;;5.00;2.42;;;1.70;99.90;;;;;;5025201;28;20218;-60
2021/01/31 06:58:19;;;;;;;1.80;0.20;;;1.70;99.90;;;;;;5030821;28;20182;-60
2021/01/31 07:01:09;;;;;;;5.97;4.30;;;1.80;99.90;;;;;;5028971;28;20212;-60
2021/01/31 07:03:59;;;;;;;2.08;0.57;;;1.80;99.90;;;;;;5028972;28;20185;-60
2021/01/31 07:06:46;;;;;;;5.20;2.13;;;1.70;99.90;;;;;;5010479;28;20194;-60
2021/01/31 07:09:35;;;;;;;5.95;3.58;;;1.80;99.90;;;;;;5031101;28;20189;-60
2021/01/31 07:12:10;;;;;;;2.47;0.40;;;1.80;99.90;;;;;;5029753;28;20210;-60
2021/01/31 07:14:48;;;;;;;1.83;0.30;;;1.80;99.90;;;;;;5029744;28;20209;-60
2021/01/31 07:17:20;;;;;;;1.90;0.30;;;1.80;99.90;;;;;;5033319;28;20189;-61
2021/01/31 07:19:56;;;;;;;5.03;1.38;;;1.90;99.90;;;;;;5023164;28;20649;-61
2021/01/31 07:22:46;;;;;;;1.80;0.20;;;1.90;99.90;;;;;;5029737;28;20296;-61
2021/01/31 07:25:17;;;;;;;1.80;0.20;;;1.90;99.90;;;;;;4984230;28;20186;-61
2021/01/31 07:27:44;;;;;;;5.85;3.47;;;1.80;99.90;;;;;;5028950;28;20272;-62
2021/01/31 07:30:19;;;;;;;1.80;0.20;;;1.80;99.90;;;;;;5027741;28;20588;-61
2021/01/31 07:33:03;;;;;;;1.90;0.30;;;1.80;99.90;;;;;;5029793;28;20200;-61
2021/01/31 07:35:48;;;;;;;1.80;0.20;;;1.70;99.90;;;;;;5027268;28;20190;-61
2021/01/31 07:38:19;;;;;;;4.32;2.00;;;1.80;99.90;;;;;;5029554;28;20208;-61
2021/01/31 07:40:48;;;;;;;6.53;4.18;;;1.90;99.90;;;;;;5024389;28;20308;-61
2021/01/31 07:43:17;;;;;;;3.85;1.67;;;1.80;99.90;;;;;;5025085;28;20189;-61
2021/01/31 07:45:43;;;;;;;1.80;0.20;;;1.70;99.90;;;;;;5038196;28;20193;-62
2021/01/31 07:48:52;;;;;;;3.10;1.60;;;1.70;99.90;;;;;;5025504;28;20195;-61
2021/01/31 07:51:27;;;;;;;5.85;2.97;;;1.80;99.90;;;;;;5026920;28;20259;-61
2021/01/31 07:53:54;;;;;;;1.80;0.20;;;1.90;99.90;;;;;;5030532;28;20205;-61
2021/01/31 07:56:37;;;;;;;2.20;0.60;;;1.90;99.90;;;;;;5029972;28;20244;-61
2021/01/31 07:59:08;;;;;;;2.50;1.20;;;1.90;99.90;;;;;;5031877;28;20708;-61
2021/01/31 08:01:40;;;;;;;2.53;0.70;;;1.90;99.90;;;;;;5029674;28;20210;-61
2021/01/31 08:04:17;;;;;;;3.58;1.88;;;1.80;99.90;;;;;;5027622;28;20233;-61
2021/01/31 08:06:48;;;;;;;2.10;0.93;;;1.90;99.90;;;;;;5029872;28;20213;-61
2021/01/31 08:09:25;;;;;;;1.80;0.20;;;2.00;99.90;;;;;;5030242;28;20186;-61
2021/01/31 08:11:58;;;;;;;1.80;0.20;;;2.00;99.90;;;;;;5023298;28;20220;-62
2021/01/31 08:15:04;;;;;;;1.80;0.20;;;2.00;99.90;;;;;;5021461;28;20213;-61
2021/01/31 08:17:55;;;;;;;4.45;2.42;;;2.20;99.90;;;;;;5028902;28;20529;-61
2021/01/31 08:20:23;;;;;;;4.03;3.65;;;2.20;99.90;;;;;;5020404;28;20200;-60
2021/01/31 08:22:49;;;;;;;1.80;0.20;;;2.20;99.90;;;;;;5019643;28;20191;-60
2021/01/31 08:25:15;;;;;;;1.80;0.20;;;2.20;99.90;;;;;;5024464;28;20171;-61
2021/01/31 08:27:40;;;;;;;2.00;0.73;;;2.30;99.90;;;;;;5026944;28;20192;-60
2021/01/31 08:30:13;;;;;;;2.17;0.73;;;2.40;99.90;;;;;;5027487;28;20220;-60
2021/01/31 08:33:06;;;;;;;1.83;0.20;;;2.40;99.90;;;;;;5029637;28;20193;-61
2021/01/31 08:35:44;;;;;;;2.75;1.40;;;2.50;99.90;;;;;;5027866;28;20193;-62
2021/01/31 08:38:26;;;;;;;1.80;0.20;;;2.40;99.90;;;;;;5027306;28;20692;-61
2021/01/31 08:41:01;;;;;;;2.55;1.33;;;2.40;99.90;;;;;;5026180;28;20343;-62
2021/01/31 08:43:38;;;;;;;1.80;0.20;;;2.30;99.90;;;;;;5026258;28;20220;-62
2021/01/31 08:46:07;;;;;;;1.80;0.30;;;2.30;99.90;;;;;;5026179;28;20656;-62
2021/01/31 08:48:33;;;;;;;1.80;0.20;;;2.20;99.90;;;;;;5025234;28;20186;-62
2021/01/31 08:51:13;;;;;;;1.80;0.20;;;2.30;99.90;;;;;;5033228;28;20607;-62
2021/01/31 08:53:39;;;;;;;1.90;0.30;;;2.40;99.90;;;;;;5027551;28;20202;-62
2021/01/31 08:56:23;;;;;;;2.23;1.07;;;2.50;99.90;;;;;;5029340;28;20711;-62
2021/01/31 08:58:50;;;;;;;1.80;0.20;;;2.50;99.90;;;;;;5022658;28;20473;-62
2021/01/31 09:01:16;;;;;;;1.90;0.40;;;2.50;99.90;;;;;;5010210;28;20202;-62
2021/01/31 09:03:43;;;;;;;1.80;0.20;;;2.60;99.90;;;;;;5026016;28;20190;-62
2021/01/31 09:06:09;;;;;;;1.80;0.30;;;2.70;99.90;;;;;;5025658;28;20444;-62
2021/01/31 09:08:36;;;;;;;1.80;0.20;;;2.70;99.90;;;;;;5025427;28;20216;-62
2021/01/31 09:11:05;;;;;;;3.00;1.67;;;2.70;99.90;;;;;;5029035;28;20265;-62
2021/01/31 09:13:33;;;;;;;1.80;0.20;;;2.70;99.90;;;;;;5026768;28;20211;-62
2021/01/31 09:16:20;;;;;;;1.90;0.35;;;2.70;99.90;;;;;;5029692;28;20226;-60
2021/01/31 09:18:46;;;;;;;1.88;0.30;;;2.80;99.90;;;;;;5030589;28;20537;-60
2021/01/31 09:21:20;;;;;;;1.80;0.20;;;2.80;99.90;;;;;;5031488;28;20190;-60
2021/01/31 09:23:46;;;;;;;1.80;0.20;;;2.90;99.90;;;;;;5033117;28;20440;-61
2021/01/31 09:26:12;;;;;;;1.88;0.30;;;2.90;99.90;;;;;;5033639;28;20190;-60
2021/01/31 09:28:40;;;;;;;1.80;0.30;;;3.00;99.90;;;;;;5029894;28;20657;-60
2021/01/31 09:31:07;;;;;;;3.00;0.95;;;3.00;99.90;;;;;;5032529;28;20232;-60
2021/01/31 09:33:41;;;;;;;1.80;0.20;;;3.00;99.90;;;;;;5011542;28;20207;-61
2021/01/31 09:36:22;;;;;;;1.80;0.20;;;3.00;99.90;;;;;;5030115;28;20186;-60
2021/01/31 09:38:49;;;;;;;1.80;0.20;;;3.00;99.90;;;;;;5000294;28;20181;-60
2021/01/31 09:41:17;;;;;;;1.80;0.20;;;2.90;99.90;;;;;;5032917;28;20202;-60
2021/01/31 09:43:45;;;;;;;3.47;1.35;;;3.00;99.90;;;;;;5017058;28;20653;-59
2021/01/31 09:46:14;;;;;;;1.90;0.20;;;3.10;99.90;;;;;;5028183;28;20240;-60
2021/01/31 09:48:41;;;;;;;1.90;0.20;;;3.10;99.90;;;;;;5029372;28;20284;-60
2021/01/31 09:51:23;;;;;;;1.80;0.20;;;3.10;99.90;;;;;;5031474;28;20248;-60
2021/01/31 09:53:48;;;;;;;1.80;0.20;;;3.00;99.90;;;;;;5028463;28;20198;-60
2021/01/31 09:56:33;;;;;;;1.80;0.20;;;2.90;99.90;;;;;;5030926;28;20676;-60
2021/01/31 09:59:00;;;;;;;2.00;0.70;;;3.00;99.90;;;;;;5032670;28;20197;-60
2021/01/31 10:01:28;;;;;;;1.83;0.20;;;3.00;99.90;;;;;;5016427;28;20202;-60
2021/01/31 10:04:05;;;;;;;1.80;0.20;;;2.90;99.90;;;;;;5035021;28;20280;-60
2021/01/31 10:06:46;;;;;;;1.80;0.20;;;2.80;99.90;;;;;;5030032;28;20190;-60
2021/01/31 10:09:12;;;;;;;31.45;29.17;;;2.80;99.90;;;;;;5026915;28;20727;-60
2021/01/31 10:11:44;;;;;;;5.47;2.78;;;2.80;99.90;;;;;;5035722;28;20210;-60
2021/01/31 10:14:33;;;;;;;2.00;0.57;;;2.80;99.90;;;;;;5036183;28;20286;-59
2021/01/31 10:17:12;;;;;;;2.40;1.05;;;2.90;99.90;;;;;;5035995;28;20178;-59
2021/01/31 10:19:38;;;;;;;1.80;0.20;;;3.00;99.90;;;;;;5012658;28;20190;-60
2021/01/31 10:22:13;;;;;;;1.90;0.50;;;3.00;99.90;;;;;;5025358;28;20202;-60
2021/01/31 10:24:46;;;;;;;5.85;2.75;;;3.00;99.90;;;;;;5027273;28;20182;-58
2021/01/31 10:27:41;;;;;;;6.63;4.55;;;3.00;99.90;;;;;;5028384;28;20188;-62
2021/01/31 10:30:36;;;;;;;1.95;0.57;;;2.90;99.90;;;;;;5027721;28;20288;-58
2021/01/31 10:33:03;;;;;;;2.10;0.80;;;2.90;99.90;;;;;;5023749;28;20193;-60
2021/01/31 10:35:33;;;;;;;2.20;1.15;;;2.90;99.90;;;;;;5029893;28;20209;-59
2021/01/31 10:38:21;;;;;;;2.00;0.82;;;2.90;99.90;;;;;;5028098;28;20279;-59
2021/01/31 10:40:46;;;;;;;1.80;0.20;;;2.90;99.90;;;;;;5015150;28;20210;-59
2021/01/31 10:43:12;;;;;;;1.80;0.20;;;2.90;99.90;;;;;;5029322;28;20665;-58
2021/01/31 10:45:38;;;;;;;1.90;0.50;;;3.00;99.90;;;;;;5025621;28;20565;-59
2021/01/31 10:48:04;;;;;;;1.85;0.20;;;2.90;99.90;;;;;;5032354;28;20185;-59
2021/01/31 10:50:29;;;;;;;1.80;0.20;;;3.00;99.90;;;;;;5025369;28;20233;-58
2021/01/31 10:52:55;;;;;;;1.80;0.20;;;3.00;99.90;;;;;;5029735;28;20208;-59
2021/01/31 10:55:20;;;;;;;1.90;0.40;;;3.10;99.90;;;;;;5025991;28;20208;-58
2021/01/31 10:57:46;;;;;;;2.73;1.27;;;3.20;99.90;;;;;;5028120;28;20198;-58
2021/01/31 11:00:12;;;;;;;7.53;3.07;;;3.30;99.90;;;;;;5029171;28;20185;-59
2021/01/31 11:02:38;;;;;;;1.80;0.20;;;3.30;99.90;;;;;;5028229;28;20206;-58
2021/01/31 11:05:05;;;;;;;6.27;3.20;;;3.10;99.90;;;;;;5013962;28;20213;-58
2021/01/31 11:07:31;;;;;;;1.90;0.40;;;3.20;99.90;;;;;;5031638;28;20182;-58
2021/01/31 11:09:57;;;;;;;2.20;0.83;;;3.20;99.90;;;;;;5026149;28;20181;-58
2021/01/31 11:12:23;;;;;;;1.80;0.20;;;3.30;99.90;;;;;;5033306;28;20233;-58
2021/01/31 11:17:16;;;;;;;2.13;0.47;;;3.30;99.90;;;;;;5041972;28;20194;-65
2021/01/31 11:19:41;;;;;;;1.80;0.20;;;3.30;99.90;;;;;;5042420;28;20544;-65
2021/01/31 11:22:07;;;;;;;1.80;0.20;;;3.30;99.90;;;;;;5027650;28;20637;-64
2021/01/31 11:24:32;;;;;;;1.80;0.20;;;3.40;99.90;;;;;;5027150;28;20261;-65
2021/01/31 11:26:58;;;;;;;2.00;0.70;;;3.40;99.90;;;;;;5030929;28;20588;-65
2021/01/31 11:29:24;;;;;;;5.37;2.53;;;3.40;99.90;;;;;;5030386;28;20192;-66
2021/01/31 11:31:49;;;;;;;1.80;0.20;;;3.30;99.90;;;;;;5029504;28;20510;-66
2021/01/31 11:34:15;;;;;;;2.10;0.80;;;3.20;99.90;;;;;;5023184;28;20286;-65
2021/01/31 11:36:40;;;;;;;1.83;0.27;;;3.20;99.90;;;;;;5023207;28;20214;-65
2021/01/31 11:39:09;;;;;;;1.80;0.20;;;3.30;99.90;;;;;;5031009;28;20213;-65
2021/01/31 11:41:36;;;;;;;7.35;5.28;;;3.30;99.90;;;;;;5028780;28;20193;-67
2021/01/31 11:44:03;;;;;;;1.80;0.20;;;3.30;99.90;;;;;;5022502;28;20204;-65
2021/01/31 11:46:29;;;;;;;5.95;3.13;;;3.30;99.90;;;;;;5030241;28;20207;-65
2021/01/31 11:49:03;;;;;;;7.70;3.63;;;3.20;99.90;;;;;;5039309;28;20214;-66
2021/01/31 11:51:29;;;;;;;1.90;0.30;;;3.20;99.90;;;;;;5046170;28;20193;-65
2021/01/31 11:53:55;;;;;;;1.80;0.20;;;3.20;99.90;;;;;;5030537;28;20210;-65
2021/01/31 11:56:20;;;;;;;3.13;1.43;;;3.30;99.90;;;;;;5028927;28;20210;-65
2021/01/31 11:58:46;;;;;;;1.80;0.20;;;3.30;99.90;;;;;;5026358;28;20186;-65
2021/01/31 12:01:13;;;;;;;3.53;1.27;;;3.40;99.90;;;;;;5048484;28;20177;-66
2021/01/31 12:03:38;;;;;;;1.80;0.20;;;3.40;99.90;;;;;;5028698;28;20186;-65
2021/01/31 12:06:04;;;;;;;2.37;0.70;;;3.40;99.90;;;;;;5030665;28;20201;-66
2021/01/31 12:08:30;;;;;;;1.80;0.20;;;3.40;99.90;;;;;;5026644;28;20971;-65
2021/01/31 12:10:55;;;;;;;1.80;0.20;;;3.50;99.90;;;;;;5030361;28;20217;-65
2021/01/31 12:13:21;;;;;;;2.67;1.40;;;3.60;99.90;;;;;;5027889;28;20879;-64
2021/01/31 12:15:46;;;;;;;1.87;0.20;;;3.60;99.90;;;;;;5027963;28;20229;-65
2021/01/31 12:18:13;;;;;;;2.83;1.60;;;3.60;99.90;;;;;;5026018;28;20191;-65
2021/01/31 12:20:38;;;;;;;1.80;0.20;;;3.60;99.90;;;;;;5030015;28;20235;-66
2021/01/31 12:23:04;;;;;;;1.80;0.20;;;3.60;99.90;;;;;;5025569;28;20189;-67
2021/01/31 12:25:30;;;;;;;3.03;0.53;;;3.60;99.90;;;;;;5028309;28;20213;-66
2021/01/31 12:27:58;;;;;;;1.80;0.20;;;3.60;99.90;;;;;;5029726;28;20174;-66
2021/01/31 12:30:31;;;;;;;1.80;0.45;;;3.70;99.90;;;;;;5028885;28;20210;-66
2021/01/31 12:32:57;;;;;;;4.40;1.95;;;3.70;99.90;;;;;;5029874;28;20562;-67
2021/01/31 12:35:23;;;;;;;1.80;0.20;;;3.70;99.90;;;;;;5023881;28;20210;-66
2021/01/31 12:37:49;;;;;;;3.10;2.83;;;3.70;99.90;;;;;;5028027;28;20761;-67
2021/01/31 12:40:15;;;;;;;1.80;0.20;;;3.80;99.90;;;;;;5028153;28;21007;-65
2021/01/31 12:42:43;;;;;;;3.40;0.82;;;3.70;99.90;;;;;;5027016;28;20197;-66
2021/01/31 12:45:10;;;;;;;3.28;1.52;;;3.80;99.90;;;;;;5025543;28;20906;-66
2021/01/31 12:47:36;;;;;;;1.80;0.20;;;3.70;99.90;;;;;;5032023;28;20209;-66
2021/01/31 12:50:05;;;;;;;1.87;0.20;;;3.70;99.90;;;;;;5025573;28;20675;-66
2021/01/31 12:52:31;;;;;;;1.80;0.20;;;3.80;99.90;;;;;;5020343;28;21171;-66
2021/01/31 12:54:56;;;;;;;4.83;2.57;;;3.80;99.90;;;;;;5030164;28;20207;-66
2021/01/31 12:57:22;;;;;;;1.87;0.37;;;3.80;99.90;;;;;;5034321;28;20193;-67
2021/01/31 12:59:48;;;;;;;3.50;3.20;;;3.70;99.90;;;;;;5025891;28;20217;-66
2021/01/31 13:02:13;;;;;;;1.87;0.30;;;3.60;99.90;;;;;;5029808;28;20549;-67
2021/01/31 13:04:41;;;;;;;1.80;0.20;;;3.70;99.90;;;;;;5032202;28;20182;-66
2021/01/31 13:07:06;;;;;;;5.47;3.33;;;3.70;99.90;;;;;;5031121;28;20311;-66
2021/01/31 13:09:32;;;;;;;1.80;0.20;;;3.60;99.90;;;;;;5031681;28;20656;-66
2021/01/31 13:11:58;;;;;;;2.20;0.80;;;3.70;99.90;;;;;;5028717;28;20206;-66
2021/01/31 13:14:24;;;;;;;2.20;1.20;;;3.60;99.90;;;;;;5027354;28;20256;-66
2021/01/31 13:16:50;;;;;;;1.80;0.20;;;3.60;99.90;;;;;;5028831;28;20464;-66
2021/01/31 13:19:16;;;;;;;1.80;0.30;;;3.60;99.90;;;;;;5049362;28;20232;-66
2021/01/31 13:21:41;;;;;;;2.83;1.33;;;3.60;99.90;;;;;;5028853;28;20198;-65
2021/01/31 13:24:07;;;;;;;4.63;2.10;;;3.60;99.90;;;;;;5028056;28;20491;-67
2021/01/31 13:26:32;;;;;;;1.80;0.20;;;3.60;99.90;;;;;;5036781;28;20206;-66